Time;durP1;ratioP1;P1;durP2;ratioP2;P2;SDS_P1;SDS_P2;PMS_P1;PMS_P2;Temp;Humidity;BMP_temperature;BMP_pressure;BME280_temperature;BME280_humidity;BME280_pressure;Samples;Min_cycle;Max_cycle;Signal;HPM_P1;HPM_P2
2022/10/25 00:02:10;;;;;;;10.02;6.15;;;19.50;63.10;;;;;;5034734;28;20538;-66
2022/10/25 00:04:37;;;;;;;9.88;6.35;;;19.50;63.30;;;;;;5033943;28;20216;-66
2022/10/25 00:07:04;;;;;;;12.10;6.65;;;19.50;63.70;;;;;;5033776;28;20212;-66
2022/10/25 00:09:31;;;;;;;8.00;5.40;;;19.40;63.40;;;;;;5035268;28;20188;-66
2022/10/25 00:11:58;;;;;;;9.98;5.55;;;19.40;63.40;;;;;;5033741;28;20716;-66
2022/10/25 00:14:25;;;;;;;12.52;6.22;;;19.40;63.50;;;;;;5033632;28;20196;-66
2022/10/25 00:16:53;;;;;;;11.90;5.97;;;19.40;63.30;;;;;;5033737;28;20211;-66
2022/10/25 00:19:20;;;;;;;9.23;5.65;;;19.40;63.40;;;;;;5033818;28;20258;-66
2022/10/25 00:21:48;;;;;;;10.30;5.90;;;19.40;63.50;;;;;;5034436;28;20291;-66
2022/10/25 00:24:15;;;;;;;9.60;6.13;;;19.40;63.40;;;;;;5017116;28;20223;-66
2022/10/25 00:26:42;;;;;;;8.85;5.30;;;19.40;63.50;;;;;;5033386;28;20223;-66
2022/10/25 00:29:10;;;;;;;9.95;5.53;;;19.40;63.30;;;;;;5034256;28;20250;-67
2022/10/25 00:31:37;;;;;;;9.38;5.68;;;19.30;63.40;;;;;;5033519;28;20206;-67
2022/10/25 00:34:05;;;;;;;9.98;6.38;;;19.30;63.30;;;;;;5034230;28;20196;-67
2022/10/25 00:36:32;;;;;;;10.23;6.07;;;19.30;63.40;;;;;;5033383;28;20212;-67
2022/10/25 00:38:59;;;;;;;8.43;5.32;;;19.30;63.40;;;;;;5034607;28;20212;-67
2022/10/25 00:41:27;;;;;;;9.13;5.43;;;19.30;63.40;;;;;;5033121;28;20204;-67
2022/10/25 00:43:55;;;;;;;9.98;6.13;;;19.30;63.50;;;;;;5032956;28;20200;-67
2022/10/25 00:46:23;;;;;;;10.75;6.38;;;19.30;63.40;;;;;;5034653;28;20214;-67
2022/10/25 00:48:54;;;;;;;9.93;5.05;;;19.30;63.50;;;;;;5034277;28;20816;-67
2022/10/25 00:51:23;;;;;;;11.60;5.88;;;19.30;63.70;;;;;;5034528;28;20187;-67
2022/10/25 00:53:50;;;;;;;10.85;5.53;;;19.30;63.80;;;;;;5033062;28;20258;-67
2022/10/25 00:56:19;;;;;;;10.57;5.75;;;19.30;63.40;;;;;;5032846;28;20196;-67
2022/10/25 00:58:47;;;;;;;12.00;5.80;;;19.20;63.80;;;;;;5032946;28;20220;-67
2022/10/25 01:01:14;;;;;;;7.57;4.93;;;19.30;63.50;;;;;;5032889;28;20200;-67
2022/10/25 01:03:41;;;;;;;8.98;4.88;;;19.30;63.50;;;;;;5032897;28;20208;-67
2022/10/25 01:06:26;;;;;;;9.38;5.50;;;19.30;63.40;;;;;;5032744;28;20215;-67
2022/10/25 01:08:53;;;;;;;8.05;5.45;;;19.30;63.50;;;;;;5032694;28;20226;-67
2022/10/25 01:11:20;;;;;;;9.38;5.50;;;19.30;63.60;;;;;;5032775;28;20202;-67
2022/10/25 01:13:48;;;;;;;10.85;5.45;;;19.30;63.60;;;;;;5034344;28;20190;-67
2022/10/25 01:16:18;;;;;;;7.05;4.95;;;19.20;63.50;;;;;;5032522;28;20196;-67
2022/10/25 01:18:48;;;;;;;7.22;5.07;;;19.30;63.80;;;;;;5033858;28;20215;-67
2022/10/25 01:21:33;;;;;;;8.55;5.20;;;19.20;63.70;;;;;;5034125;28;20184;-67
2022/10/25 01:24:20;;;;;;;8.07;5.25;;;19.20;63.90;;;;;;5032658;28;20282;-67
2022/10/25 01:27:00;;;;;;;7.80;4.80;;;19.20;64.00;;;;;;5030421;28;20214;-67
2022/10/25 01:29:37;;;;;;;6.10;4.38;;;19.20;63.90;;;;;;5034158;28;20176;-67
2022/10/25 01:32:06;;;;;;;8.75;5.43;;;19.20;63.60;;;;;;5033714;28;20171;-67
2022/10/25 01:34:34;;;;;;;6.57;4.45;;;19.20;63.90;;;;;;5033331;28;20196;-67
2022/10/25 01:37:03;;;;;;;6.75;4.38;;;19.20;63.90;;;;;;5032665;28;20234;-67
2022/10/25 01:39:32;;;;;;;9.73;5.15;;;19.20;63.60;;;;;;5032778;28;20207;-67
2022/10/25 01:42:03;;;;;;;7.25;4.80;;;19.10;63.60;;;;;;5032557;28;20200;-67
2022/10/25 01:44:35;;;;;;;6.50;4.47;;;19.20;63.60;;;;;;5032388;28;20681;-67
2022/10/25 01:47:04;;;;;;;7.18;4.45;;;19.20;63.40;;;;;;5032416;28;20597;-67
2022/10/25 01:49:36;;;;;;;7.47;4.80;;;19.10;63.80;;;;;;5032565;28;20253;-67
2022/10/25 01:52:04;;;;;;;8.07;4.60;;;19.20;63.70;;;;;;5017110;28;20200;-66
2022/10/25 01:54:31;;;;;;;6.00;4.18;;;19.10;63.60;;;;;;5032370;28;20713;-66
2022/10/25 01:57:05;;;;;;;8.75;4.88;;;19.10;63.50;;;;;;5033251;28;20219;-66
2022/10/25 01:59:54;;;;;;;7.50;4.65;;;19.10;63.50;;;;;;5034588;28;20203;-66
2022/10/25 02:02:24;;;;;;;6.65;4.75;;;19.10;63.20;;;;;;5033846;28;20188;-66
2022/10/25 02:04:55;;;;;;;6.28;4.20;;;19.10;63.70;;;;;;5034449;28;20200;-66
2022/10/25 02:07:25;;;;;;;6.45;4.35;;;19.10;63.20;;;;;;5032478;28;20244;-66
2022/10/25 02:09:57;;;;;;;8.85;4.70;;;19.10;63.30;;;;;;5033288;28;20200;-66
2022/10/25 02:12:27;;;;;;;8.30;4.65;;;19.10;63.40;;;;;;5034351;28;20215;-66
2022/10/25 02:14:58;;;;;;;7.15;4.35;;;19.10;63.70;;;;;;5033332;28;20262;-66
2022/10/25 02:17:26;;;;;;;7.18;4.50;;;19.10;63.70;;;;;;5033301;28;20277;-66
2022/10/25 02:19:56;;;;;;;6.75;4.30;;;19.10;63.30;;;;;;5033718;28;20275;-66
2022/10/25 02:22:25;;;;;;;5.55;3.80;;;19.10;63.50;;;;;;5033787;28;20172;-66
2022/10/25 02:24:53;;;;;;;6.50;4.05;;;19.10;63.50;;;;;;5032318;28;20219;-66
2022/10/25 02:27:20;;;;;;;7.07;4.30;;;19.10;63.40;;;;;;5032649;28;20777;-66
2022/10/25 02:29:47;;;;;;;6.07;3.95;;;19.00;63.40;;;;;;5034038;28;20192;-66
2022/10/25 02:32:14;;;;;;;7.13;4.38;;;19.10;63.20;;;;;;5036300;28;20192;-66
2022/10/25 02:34:40;;;;;;;6.13;3.85;;;19.10;63.60;;;;;;5036027;28;20200;-66
2022/10/25 02:37:09;;;;;;;5.53;3.88;;;19.10;63.50;;;;;;5036204;28;20712;-66
2022/10/25 02:39:36;;;;;;;6.47;3.97;;;19.00;63.40;;;;;;5036179;28;20196;-66
2022/10/25 02:42:04;;;;;;;6.68;4.22;;;19.10;64.30;;;;;;5036191;28;20246;-66
2022/10/25 02:44:31;;;;;;;6.28;4.13;;;19.00;63.20;;;;;;5036187;28;20200;-66
2022/10/25 02:46:58;;;;;;;4.55;3.35;;;19.00;63.20;;;;;;5037025;28;20212;-67
2022/10/25 02:49:25;;;;;;;5.43;3.80;;;19.00;63.30;;;;;;5037571;28;20186;-67
2022/10/25 02:51:52;;;;;;;6.07;3.90;;;19.00;63.40;;;;;;5036962;28;20636;-67
2022/10/25 02:54:21;;;;;;;4.95;3.50;;;19.00;63.10;;;;;;5036294;28;20736;-67
2022/10/25 02:56:51;;;;;;;6.30;3.88;;;19.00;63.10;;;;;;5035942;28;20267;-67
2022/10/25 02:59:18;;;;;;;5.03;3.80;;;19.00;63.10;;;;;;5035593;28;20204;-67
2022/10/25 03:01:45;;;;;;;5.35;3.58;;;19.00;64.00;;;;;;5035567;28;20200;-67
2022/10/25 03:04:13;;;;;;;6.53;3.78;;;19.00;63.10;;;;;;5037052;28;20203;-67
2022/10/25 03:06:39;;;;;;;4.65;3.50;;;19.00;63.10;;;;;;5035298;28;20270;-67
2022/10/25 03:09:07;;;;;;;6.78;3.80;;;18.90;62.70;;;;;;5035684;28;20207;-67
2022/10/25 03:11:35;;;;;;;4.18;3.28;;;18.90;62.70;;;;;;5036696;28;20199;-67
2022/10/25 03:14:02;;;;;;;6.05;4.13;;;18.90;63.00;;;;;;5035266;28;20200;-67
2022/10/25 03:16:29;;;;;;;6.07;4.03;;;18.90;63.00;;;;;;5035231;28;20196;-67
2022/10/25 03:18:57;;;;;;;5.72;3.83;;;18.90;63.10;;;;;;5035093;28;20215;-67
2022/10/25 03:21:24;;;;;;;6.15;3.88;;;19.00;63.10;;;;;;5035299;28;20216;-67
2022/10/25 03:23:51;;;;;;;6.25;4.25;;;19.00;63.50;;;;;;5034862;28;20191;-67
2022/10/25 03:26:17;;;;;;;5.25;3.70;;;19.00;63.60;;;;;;5034852;28;20223;-67
2022/10/25 03:28:46;;;;;;;6.05;3.88;;;19.00;63.30;;;;;;5034819;28;20220;-67
2022/10/25 03:31:13;;;;;;;5.88;3.70;;;19.10;63.30;;;;;;5035029;28;20274;-67
2022/10/25 03:33:40;;;;;;;6.88;4.20;;;19.10;63.20;;;;;;5036105;28;20219;-67
2022/10/25 03:36:07;;;;;;;5.85;3.88;;;19.20;62.90;;;;;;5034587;28;20674;-67
2022/10/25 03:38:35;;;;;;;6.43;3.80;;;19.20;63.00;;;;;;5018412;28;20299;-67
2022/10/25 03:41:02;;;;;;;6.40;3.90;;;19.20;62.60;;;;;;5017845;28;20229;-67
2022/10/25 03:43:29;;;;;;;4.95;3.58;;;19.30;62.50;;;;;;5034874;28;20684;-67
2022/10/25 03:45:57;;;;;;;5.25;3.53;;;19.20;62.20;;;;;;5035741;28;20244;-67
2022/10/25 03:48:24;;;;;;;5.28;3.75;;;19.30;62.20;;;;;;5034559;28;20224;-67
2022/10/25 03:50:52;;;;;;;6.05;3.60;;;19.30;62.10;;;;;;5034565;28;20196;-67
2022/10/25 03:53:19;;;;;;;5.25;3.63;;;19.30;62.00;;;;;;5034719;28;20246;-67
2022/10/25 03:55:47;;;;;;;5.13;3.45;;;19.30;62.00;;;;;;5035265;28;20196;-67
2022/10/25 03:58:14;;;;;;;4.22;3.50;;;19.30;61.90;;;;;;5037322;28;20247;-67
2022/10/25 04:00:41;;;;;;;5.45;3.67;;;19.30;61.80;;;;;;5034888;28;20204;-67
2022/10/25 04:03:10;;;;;;;5.70;3.45;;;19.30;61.60;;;;;;5034388;28;20196;-67
2022/10/25 04:05:38;;;;;;;5.57;3.53;;;19.30;61.70;;;;;;5034081;28;20216;-67
2022/10/25 04:08:05;;;;;;;4.82;3.67;;;19.40;61.90;;;;;;5035310;28;20220;-67
2022/10/25 04:10:33;;;;;;;6.35;3.65;;;19.30;61.70;;;;;;5034235;28;20200;-67
2022/10/25 04:13:00;;;;;;;6.13;3.53;;;19.30;61.80;;;;;;5033909;28;20192;-67
2022/10/25 04:15:27;;;;;;;4.38;3.10;;;19.30;61.90;;;;;;5034253;28;20283;-67
2022/10/25 04:17:54;;;;;;;5.38;3.17;;;19.30;61.40;;;;;;5033735;28;20211;-67
2022/10/25 04:20:23;;;;;;;5.53;3.17;;;19.30;61.70;;;;;;5017575;28;20218;-67
2022/10/25 04:22:54;;;;;;;5.47;3.17;;;19.30;61.60;;;;;;5033549;28;20251;-67
2022/10/25 04:25:23;;;;;;;4.68;2.95;;;19.30;61.50;;;;;;5033609;28;20219;-67
2022/10/25 04:27:50;;;;;;;4.40;3.13;;;19.30;61.60;;;;;;5033566;28;20721;-67
2022/10/25 04:30:17;;;;;;;5.32;3.13;;;19.30;61.70;;;;;;5033828;28;20204;-67
2022/10/25 04:32:44;;;;;;;5.57;2.92;;;19.20;61.50;;;;;;5034206;28;20254;-67
2022/10/25 04:35:11;;;;;;;4.75;3.40;;;19.20;61.40;;;;;;5033586;28;20192;-67
2022/10/25 04:37:41;;;;;;;4.28;3.03;;;19.20;61.20;;;;;;5033517;28;20314;-66
2022/10/25 04:40:09;;;;;;;4.15;3.10;;;19.20;61.70;;;;;;5034771;28;20196;-66
2022/10/25 04:42:36;;;;;;;5.97;3.17;;;19.10;61.50;;;;;;5033791;28;20216;-66
2022/10/25 04:45:03;;;;;;;4.95;2.92;;;19.10;61.50;;;;;;5035119;28;20192;-66
2022/10/25 04:47:31;;;;;;;4.72;2.85;;;19.10;62.00;;;;;;5034935;28;20285;-66
2022/10/25 04:49:58;;;;;;;3.92;2.72;;;19.10;62.10;;;;;;5033519;28;20208;-66
2022/10/25 04:52:25;;;;;;;3.70;2.80;;;19.00;62.30;;;;;;5032988;28;20655;-66
2022/10/25 04:54:54;;;;;;;4.47;3.25;;;19.10;62.10;;;;;;5033130;28;20204;-66
2022/10/25 04:57:21;;;;;;;3.97;2.80;;;19.10;62.10;;;;;;5033597;28;20690;-66
2022/10/25 04:59:48;;;;;;;4.90;2.70;;;19.00;62.20;;;;;;5034472;28;20196;-66
2022/10/25 05:02:15;;;;;;;3.95;2.75;;;19.00;62.20;;;;;;5033066;28;20291;-66
2022/10/25 05:04:42;;;;;;;5.28;3.00;;;19.00;62.70;;;;;;5033096;28;20195;-66
2022/10/25 05:07:09;;;;;;;4.15;2.80;;;19.00;62.50;;;;;;5033554;28;20717;-66
2022/10/25 05:09:36;;;;;;;4.75;3.30;;;19.00;63.10;;;;;;5016790;28;20200;-66
2022/10/25 05:12:05;;;;;;;3.25;2.40;;;19.00;63.10;;;;;;5032812;28;20290;-66
2022/10/25 05:14:32;;;;;;;7.03;3.15;;;19.00;62.50;;;;;;5033911;28;20192;-67
2022/10/25 05:17:00;;;;;;;3.67;2.90;;;19.00;62.50;;;;;;5016593;28;20226;-67
2022/10/25 05:19:27;;;;;;;6.32;2.90;;;19.00;62.80;;;;;;5033935;28;20196;-67
2022/10/25 05:21:54;;;;;;;5.45;3.17;;;19.00;62.90;;;;;;5032758;28;20204;-67
2022/10/25 05:24:21;;;;;;;3.60;2.50;;;19.00;63.10;;;;;;5032680;28;20577;-67
2022/10/25 05:26:48;;;;;;;3.53;2.63;;;18.90;63.00;;;;;;5032610;28;20694;-67
2022/10/25 05:29:16;;;;;;;4.07;2.92;;;18.90;63.10;;;;;;5032535;28;20689;-67
2022/10/25 05:31:43;;;;;;;4.85;2.85;;;18.90;63.00;;;;;;5032552;28;20206;-67
2022/10/25 05:34:09;;;;;;;5.47;2.83;;;18.90;63.30;;;;;;5032607;28;20204;-67
2022/10/25 05:36:37;;;;;;;3.70;2.55;;;18.90;63.00;;;;;;5032302;28;20232;-67
2022/10/25 05:39:04;;;;;;;5.22;2.67;;;18.90;63.00;;;;;;5032879;28;20196;-67
2022/10/25 05:41:31;;;;;;;3.03;2.47;;;18.90;63.10;;;;;;5032459;28;20196;-68
2022/10/25 05:43:58;;;;;;;3.83;2.70;;;18.80;62.90;;;;;;5032788;28;20192;-68
2022/10/25 05:46:26;;;;;;;3.58;2.47;;;18.80;62.10;;;;;;5032420;28;20226;-68
2022/10/25 05:48:54;;;;;;;3.85;2.85;;;18.80;62.10;;;;;;5032324;28;20755;-68
2022/10/25 05:51:21;;;;;;;4.35;2.90;;;18.80;61.80;;;;;;5032337;28;20708;-68
2022/10/25 05:53:49;;;;;;;4.60;2.75;;;18.80;62.20;;;;;;5032139;28;20204;-68
2022/10/25 05:56:16;;;;;;;3.53;2.70;;;18.80;62.30;;;;;;5032372;28;20565;-68
2022/10/25 05:58:43;;;;;;;5.20;3.08;;;18.70;62.00;;;;;;5033524;28;20578;-68
2022/10/25 06:01:11;;;;;;;3.55;2.40;;;18.70;61.90;;;;;;5033502;28;20192;-68
2022/10/25 06:03:39;;;;;;;3.72;2.58;;;18.70;61.80;;;;;;5033367;28;20192;-68
2022/10/25 06:06:08;;;;;;;3.28;2.50;;;18.70;62.00;;;;;;5036605;28;20229;-68
2022/10/25 06:08:35;;;;;;;4.40;2.67;;;18.70;61.40;;;;;;5037531;28;20586;-68
2022/10/25 06:11:03;;;;;;;4.07;2.70;;;18.70;61.60;;;;;;5036275;28;20666;-68
2022/10/25 06:13:30;;;;;;;3.30;2.40;;;18.70;61.60;;;;;;5036066;28;20196;-68
2022/10/25 06:15:57;;;;;;;3.33;2.25;;;18.80;62.50;;;;;;5036269;28;20192;-68
2022/10/25 06:18:24;;;;;;;4.05;2.50;;;18.80;62.20;;;;;;5036062;28;20585;-68
2022/10/25 06:20:53;;;;;;;5.55;2.70;;;18.80;62.00;;;;;;5036284;28;20204;-68
2022/10/25 06:23:40;;;;;;;3.47;2.25;;;18.90;61.80;;;;;;5037760;28;20191;-68
2022/10/25 06:26:09;;;;;;;3.67;2.10;;;18.80;61.60;;;;;;5036965;28;20216;-68
2022/10/25 06:28:36;;;;;;;4.00;2.60;;;18.90;61.50;;;;;;5037452;28;20204;-68
2022/10/25 06:31:03;;;;;;;4.70;2.63;;;18.90;61.10;;;;;;5036130;28;20274;-68
2022/10/25 06:33:30;;;;;;;3.15;2.45;;;18.90;60.90;;;;;;5036249;28;20215;-68
2022/10/25 06:36:00;;;;;;;6.05;2.55;;;19.00;61.10;;;;;;5037287;28;20188;-68
2022/10/25 06:38:27;;;;;;;4.50;2.50;;;18.90;60.80;;;;;;5037076;28;20216;-68
2022/10/25 06:40:58;;;;;;;3.78;2.53;;;18.90;61.10;;;;;;5036107;28;20200;-68
2022/10/25 06:43:25;;;;;;;3.75;2.30;;;18.90;61.00;;;;;;5035689;28;20200;-67
2022/10/25 06:45:52;;;;;;;6.22;2.45;;;18.90;60.70;;;;;;5035740;28;20590;-68
2022/10/25 06:48:20;;;;;;;3.33;2.42;;;18.90;60.60;;;;;;5035800;28;20231;-68
2022/10/25 06:50:47;;;;;;;3.08;2.58;;;18.90;60.70;;;;;;5035510;28;20204;-68
2022/10/25 06:53:16;;;;;;;3.40;2.20;;;18.90;60.80;;;;;;5036188;28;20228;-68
2022/10/25 06:55:45;;;;;;;3.20;2.50;;;18.90;60.70;;;;;;5035800;28;20215;-68
2022/10/25 06:58:12;;;;;;;3.67;2.05;;;18.90;60.40;;;;;;5035540;28;20228;-68
2022/10/25 07:00:39;;;;;;;3.15;2.33;;;18.90;60.50;;;;;;5019290;28;20235;-68
2022/10/25 07:03:06;;;;;;;2.80;2.45;;;18.90;60.50;;;;;;5037416;28;20192;-68
2022/10/25 07:05:33;;;;;;;5.78;2.60;;;18.90;60.70;;;;;;5036100;28;20249;-68
2022/10/25 07:08:00;;;;;;;5.65;2.30;;;18.90;60.60;;;;;;5035811;28;20290;-68
2022/10/25 07:10:29;;;;;;;4.70;2.58;;;18.90;60.70;;;;;;5035996;28;20196;-68
2022/10/25 07:12:56;;;;;;;3.28;2.45;;;19.00;61.60;;;;;;5037203;28;20196;-68
2022/10/25 07:15:23;;;;;;;4.30;2.50;;;18.90;60.70;;;;;;5035690;28;20250;-68
2022/10/25 07:17:50;;;;;;;3.75;2.20;;;18.90;60.90;;;;;;5037071;28;20228;-68
2022/10/25 07:20:17;;;;;;;2.42;2.15;;;19.00;60.60;;;;;;5036277;28;20227;-68
2022/10/25 07:22:45;;;;;;;3.40;2.47;;;19.10;61.60;;;;;;5035725;28;20200;-68
2022/10/25 07:25:12;;;;;;;2.58;2.10;;;19.10;60.70;;;;;;5035380;28;20577;-68
2022/10/25 07:27:40;;;;;;;6.05;2.42;;;19.20;60.40;;;;;;5035447;28;20231;-68
2022/10/25 07:30:08;;;;;;;3.03;2.20;;;19.30;60.20;;;;;;5019034;28;20196;-68
2022/10/25 07:32:36;;;;;;;2.33;2.13;;;19.40;59.90;;;;;;5035297;28;20223;-68
2022/10/25 07:35:03;;;;;;;3.35;2.30;;;19.40;59.90;;;;;;5035237;28;20200;-68
2022/10/25 07:37:30;;;;;;;3.40;2.22;;;19.50;59.80;;;;;;5035207;28;20223;-68
2022/10/25 07:39:57;;;;;;;4.18;2.22;;;19.50;59.80;;;;;;5035656;28;20685;-68
2022/10/25 07:42:24;;;;;;;3.17;2.20;;;19.70;60.00;;;;;;5035419;28;20659;-68
2022/10/25 07:44:53;;;;;;;1.98;1.83;;;19.80;59.70;;;;;;5035695;28;20214;-68
2022/10/25 07:47:20;;;;;;;2.20;1.92;;;19.90;59.40;;;;;;5035354;28;20695;-67
2022/10/25 07:49:47;;;;;;;3.10;2.10;;;20.10;59.30;;;;;;5035940;28;20246;-68
2022/10/25 07:52:14;;;;;;;3.35;2.67;;;20.20;59.00;;;;;;5036805;28;20204;-68
2022/10/25 07:54:41;;;;;;;2.65;2.17;;;20.30;58.90;;;;;;5035558;28;20565;-68
2022/10/25 07:57:09;;;;;;;2.83;2.10;;;20.50;58.70;;;;;;5035150;28;20262;-67
2022/10/25 07:59:36;;;;;;;3.03;2.25;;;20.70;58.40;;;;;;5035275;28;20258;-67
2022/10/25 08:02:05;;;;;;;3.20;1.90;;;21.00;57.90;;;;;;5034858;28;20195;-67
2022/10/25 08:04:32;;;;;;;3.08;1.95;;;21.20;57.50;;;;;;5034858;28;20708;-67
2022/10/25 08:07:00;;;;;;;2.90;2.35;;;21.40;57.10;;;;;;5034388;28;20315;-67
2022/10/25 08:09:27;;;;;;;3.35;1.98;;;21.60;56.70;;;;;;5034615;28;20250;-67
2022/10/25 08:11:54;;;;;;;2.10;1.90;;;21.70;56.30;;;;;;5035814;28;20246;-67
2022/10/25 08:14:21;;;;;;;3.47;2.10;;;21.90;56.10;;;;;;5034423;28;20685;-67
2022/10/25 08:16:48;;;;;;;4.90;2.30;;;22.00;55.80;;;;;;5034036;28;20197;-67
2022/10/25 08:19:17;;;;;;;2.65;2.33;;;22.10;55.50;;;;;;5034215;28;20674;-67
2022/10/25 08:21:44;;;;;;;2.72;2.00;;;22.20;55.20;;;;;;5035451;28;20195;-67
2022/10/25 08:24:11;;;;;;;3.10;2.17;;;22.30;55.00;;;;;;5034622;28;20303;-67
2022/10/25 08:26:38;;;;;;;2.20;1.80;;;22.40;55.00;;;;;;5034253;28;20266;-67
2022/10/25 08:29:04;;;;;;;2.33;1.83;;;22.40;55.20;;;;;;5034122;28;20188;-67
2022/10/25 08:31:31;;;;;;;2.17;1.98;;;22.50;54.90;;;;;;5035124;28;20188;-67
2022/10/25 08:33:58;;;;;;;3.95;2.10;;;22.60;54.60;;;;;;5034451;28;20204;-67
2022/10/25 08:36:27;;;;;;;2.80;1.67;;;22.60;54.40;;;;;;5035057;28;20192;-67
2022/10/25 08:38:54;;;;;;;3.40;2.00;;;22.70;54.20;;;;;;5033740;28;20235;-68
2022/10/25 08:41:23;;;;;;;1.95;1.75;;;22.80;54.20;;;;;;5034042;28;20258;-68
2022/10/25 08:43:58;;;;;;;3.20;1.88;;;22.80;53.90;;;;;;5035056;28;20196;-68
2022/10/25 08:46:27;;;;;;;2.42;1.98;;;23.00;53.80;;;;;;5034819;28;20265;-68
2022/10/25 08:49:00;;;;;;;2.08;1.88;;;23.00;53.70;;;;;;5034590;28;20235;-68
2022/10/25 08:51:30;;;;;;;2.92;2.05;;;23.10;53.40;;;;;;5035949;28;20611;-68
2022/10/25 08:53:59;;;;;;;2.33;2.00;;;23.10;53.20;;;;;;5035152;28;20218;-68
2022/10/25 08:56:27;;;;;;;3.17;2.00;;;23.10;52.90;;;;;;5034965;28;20188;-68
2022/10/25 08:58:56;;;;;;;2.47;1.85;;;23.20;52.80;;;;;;5033807;28;20220;-68
2022/10/25 09:01:26;;;;;;;2.55;1.88;;;23.20;52.70;;;;;;5017757;28;20659;-67
2022/10/25 09:03:53;;;;;;;2.45;1.85;;;23.30;52.70;;;;;;5033895;28;20200;-67
2022/10/25 09:06:23;;;;;;;2.33;1.90;;;23.40;52.60;;;;;;5035876;28;20663;-67
2022/10/25 09:09:02;;;;;;;2.42;1.80;;;23.40;52.50;;;;;;5033852;28;20220;-67
2022/10/25 09:11:37;;;;;;;2.35;1.90;;;23.40;52.30;;;;;;5017361;28;20299;-67
2022/10/25 09:14:06;;;;;;;2.72;1.98;;;23.50;52.30;;;;;;5033388;28;20196;-67
2022/10/25 09:16:35;;;;;;;1.67;1.58;;;23.50;52.10;;;;;;5033251;28;20196;-67
2022/10/25 09:19:02;;;;;;;2.50;1.80;;;23.60;52.10;;;;;;5033065;28;20203;-67
2022/10/25 09:21:33;;;;;;;1.90;1.70;;;23.60;52.00;;;;;;5033112;28;20196;-67
2022/10/25 09:24:02;;;;;;;3.97;1.85;;;23.60;51.90;;;;;;5033163;28;20184;-67
2022/10/25 09:26:40;;;;;;;3.47;2.00;;;23.60;51.80;;;;;;5032880;28;20200;-67
2022/10/25 09:29:15;;;;;;;2.13;1.80;;;23.60;52.40;;;;;;5032979;28;20234;-67
2022/10/25 09:31:44;;;;;;;2.25;2.03;;;23.60;51.70;;;;;;5032795;28;20238;-67
2022/10/25 09:34:11;;;;;;;2.30;1.83;;;23.70;51.60;;;;;;5033096;28;20204;-67
2022/10/25 09:36:40;;;;;;;2.33;2.00;;;23.70;51.70;;;;;;5033251;28;20200;-67
2022/10/25 09:39:14;;;;;;;1.65;1.55;;;23.70;51.60;;;;;;5032737;28;20200;-67
2022/10/25 09:41:42;;;;;;;1.73;1.63;;;23.70;52.30;;;;;;5033199;28;20208;-67
2022/10/25 09:44:12;;;;;;;3.13;2.00;;;23.70;51.60;;;;;;5033586;28;20192;-67
2022/10/25 09:46:41;;;;;;;2.10;1.83;;;23.70;51.60;;;;;;5034834;28;20180;-67
2022/10/25 09:49:13;;;;;;;2.80;2.15;;;23.70;51.60;;;;;;5033397;28;20327;-67
2022/10/25 09:51:44;;;;;;;2.10;1.90;;;23.70;51.60;;;;;;5033302;28;20529;-67
2022/10/25 09:54:15;;;;;;;2.17;1.70;;;23.70;51.60;;;;;;5032737;28;20303;-67
2022/10/25 09:56:42;;;;;;;1.83;1.60;;;23.70;51.70;;;;;;5032553;28;20204;-67
2022/10/25 09:59:10;;;;;;;1.70;1.60;;;23.60;51.60;;;;;;5033163;28;20290;-68
2022/10/25 10:01:37;;;;;;;1.85;1.63;;;23.60;51.70;;;;;;5033780;28;20193;-68
2022/10/25 10:04:06;;;;;;;2.15;1.65;;;23.60;51.70;;;;;;5032621;28;20207;-68
2022/10/25 10:06:34;;;;;;;2.28;1.80;;;23.60;51.80;;;;;;5033561;28;20651;-68
2022/10/25 10:09:02;;;;;;;2.00;1.80;;;23.60;51.80;;;;;;5032402;28;20270;-68
2022/10/25 10:11:31;;;;;;;2.35;1.70;;;23.50;51.80;;;;;;5032297;28;20200;-68
2022/10/25 10:14:01;;;;;;;1.75;1.55;;;23.50;51.90;;;;;;5032699;28;20274;-68
2022/10/25 10:16:30;;;;;;;2.97;1.70;;;23.50;52.00;;;;;;5032469;28;20204;-68
2022/10/25 10:19:13;;;;;;;2.25;1.67;;;23.50;52.00;;;;;;5033467;28;20211;-68
2022/10/25 10:21:42;;;;;;;2.35;1.75;;;23.40;52.00;;;;;;5032270;28;20287;-68
2022/10/25 10:24:15;;;;;;;2.65;1.90;;;23.40;52.00;;;;;;5032165;28;20254;-68
2022/10/25 10:26:45;;;;;;;1.70;1.58;;;23.40;52.20;;;;;;5032223;28;20196;-68
2022/10/25 10:29:14;;;;;;;2.20;1.70;;;23.40;52.20;;;;;;5032247;28;20219;-68
2022/10/25 10:31:42;;;;;;;2.88;1.67;;;23.40;52.30;;;;;;5032015;28;20207;-68
2022/10/25 10:34:25;;;;;;;2.50;1.90;;;23.30;52.40;;;;;;5031943;28;20210;-68
2022/10/25 10:37:06;;;;;;;2.45;1.70;;;23.30;52.60;;;;;;5032086;28;20287;-68
2022/10/25 10:39:33;;;;;;;2.83;1.85;;;23.20;52.60;;;;;;5031860;28;20184;-68
2022/10/25 10:42:11;;;;;;;1.85;1.63;;;23.20;52.50;;;;;;5033373;28;20246;-68
2022/10/25 10:44:38;;;;;;;2.38;1.80;;;23.20;52.70;;;;;;5031909;28;20200;-68
2022/10/25 10:47:10;;;;;;;1.67;1.58;;;23.20;52.70;;;;;;5031650;28;20784;-68
2022/10/25 10:49:38;;;;;;;2.05;1.60;;;23.20;52.80;;;;;;5032085;28;20542;-68
2022/10/25 10:52:05;;;;;;;1.73;1.63;;;23.20;52.80;;;;;;5034418;28;20202;-68
2022/10/25 10:54:33;;;;;;;1.65;1.55;;;23.10;52.70;;;;;;5036852;28;20214;-68
2022/10/25 10:57:03;;;;;;;2.03;1.75;;;23.10;52.70;;;;;;5035752;28;20220;-68
2022/10/25 10:59:36;;;;;;;1.70;1.60;;;23.10;52.80;;;;;;5035676;28;20192;-68
2022/10/25 11:02:25;;;;;;;2.20;1.70;;;23.10;53.00;;;;;;5035522;28;20204;-68
2022/10/25 11:04:53;;;;;;;1.90;1.70;;;23.10;53.20;;;;;;5035552;28;20196;-68
2022/10/25 11:07:30;;;;;;;1.60;1.50;;;23.00;53.30;;;;;;5035340;28;20220;-68
2022/10/25 11:10:22;;;;;;;1.92;1.83;;;23.00;53.40;;;;;;5035371;28;20188;-68
2022/10/25 11:16:00;;;;;;;2.03;1.80;;;23.00;53.50;;;;;;5100093;27;20553;-53
2022/10/25 11:18:35;;;;;;;1.83;1.52;;;23.00;53.50;;;;;;5082519;27;20222;-53
2022/10/25 11:21:05;;;;;;;2.60;1.67;;;23.00;53.50;;;;;;5065679;28;20234;-53
2022/10/25 11:23:36;;;;;;;2.08;1.80;;;23.00;53.60;;;;;;5065649;28;20195;-53
2022/10/25 11:26:07;;;;;;;1.92;1.60;;;23.00;53.60;;;;;;5067086;28;20535;-52
2022/10/25 11:28:39;;;;;;;2.13;1.60;;;23.00;53.60;;;;;;5067015;28;20179;-53
2022/10/25 11:31:14;;;;;;;1.88;1.60;;;23.00;53.70;;;;;;5067124;28;20224;-53
2022/10/25 11:33:48;;;;;;;1.80;1.67;;;23.00;53.80;;;;;;5066985;28;20203;-52
2022/10/25 11:36:27;;;;;;;1.58;1.40;;;23.00;53.80;;;;;;5137296;22;20280;-69
2022/10/25 11:39:01;;;;;;;1.75;1.52;;;23.00;53.80;;;;;;5131938;28;20245;-69
2022/10/25 11:41:35;;;;;;;1.63;1.52;;;23.00;53.70;;;;;;5132451;28;20180;-69
2022/10/25 11:44:10;;;;;;;1.42;1.33;;;23.00;53.80;;;;;;5149349;28;20577;-68
2022/10/25 11:46:42;;;;;;;1.73;1.52;;;23.00;53.80;;;;;;5130367;28;20189;-68
2022/10/25 11:49:17;;;;;;;1.55;1.45;;;23.10;53.90;;;;;;5113586;28;20196;-69
2022/10/25 11:51:48;;;;;;;1.50;1.40;;;23.10;54.00;;;;;;5130400;28;20215;-69
2022/10/25 11:54:30;;;;;;;2.53;1.63;;;23.10;54.00;;;;;;5151857;22;20241;-68
2022/10/25 11:57:05;;;;;;;2.28;1.80;;;23.10;54.00;;;;;;5106024;28;20218;-68
2022/10/25 11:59:37;;;;;;;1.40;1.30;;;23.10;54.00;;;;;;5106179;28;20224;-68
2022/10/25 12:02:22;;;;;;;1.50;1.40;;;23.10;54.00;;;;;;5105958;28;20201;-68
2022/10/25 12:05:07;;;;;;;1.65;1.50;;;23.10;54.00;;;;;;5106130;28;20189;-68
2022/10/25 12:07:36;;;;;;;1.63;1.50;;;23.10;54.10;;;;;;5089392;28;20214;-68
2022/10/25 12:10:08;;;;;;;1.50;1.40;;;23.10;54.00;;;;;;5105968;28;20286;-68
2022/10/25 12:12:40;;;;;;;2.50;1.60;;;23.20;54.20;;;;;;5090457;28;20258;-68
2022/10/25 12:15:12;;;;;;;2.03;1.67;;;23.20;54.20;;;;;;5105670;28;20299;-68
2022/10/25 12:17:40;;;;;;;1.63;1.40;;;23.20;54.20;;;;;;5088819;28;20244;-68
2022/10/25 12:20:07;;;;;;;1.95;1.40;;;23.20;54.20;;;;;;5088657;28;20607;-67
2022/10/25 12:22:36;;;;;;;1.92;1.50;;;23.10;54.20;;;;;;5088456;28;20198;-67
2022/10/25 12:25:05;;;;;;;1.55;1.30;;;23.20;54.20;;;;;;5164937;22;20605;-69
2022/10/25 12:27:32;;;;;;;1.63;1.30;;;23.20;54.20;;;;;;5055695;28;20289;-69
2022/10/25 12:30:01;;;;;;;1.90;1.50;;;23.20;54.20;;;;;;5057392;28;20241;-69
2022/10/25 12:32:32;;;;;;;1.48;1.33;;;23.20;54.30;;;;;;5057282;28;20249;-69
2022/10/25 12:35:01;;;;;;;1.60;1.42;;;23.10;54.30;;;;;;5056815;28;20581;-68
2022/10/25 12:37:32;;;;;;;1.63;1.40;;;23.10;54.40;;;;;;5056922;28;20207;-68
2022/10/25 12:39:59;;;;;;;1.40;1.30;;;23.10;54.50;;;;;;5056053;28;20179;-68
2022/10/25 12:42:28;;;;;;;2.05;1.48;;;23.10;54.40;;;;;;5056829;28;20192;-69
2022/10/25 12:45:11;;;;;;;1.48;1.30;;;23.10;54.50;;;;;;5055491;28;20195;-69
2022/10/25 12:47:44;;;;;;;1.58;1.48;;;23.10;54.60;;;;;;5056870;28;20226;-69
2022/10/25 12:50:40;;;;;;;1.40;1.30;;;23.00;54.80;;;;;;5074813;22;20246;-70
2022/10/25 12:53:51;;;;;;;1.35;1.25;;;23.00;54.70;;;;;;5066369;28;20566;-70
2022/10/25 12:56:24;;;;;;;2.25;1.48;;;23.00;54.80;;;;;;5055165;28;20195;-70
2022/10/25 12:58:58;;;;;;;1.58;1.48;;;23.00;54.80;;;;;;5054975;28;20835;-70
2022/10/25 13:01:37;;;;;;;1.45;1.35;;;23.00;54.80;;;;;;5054809;28;20187;-70